Time;durP1;ratioP1;P1;durP2;ratioP2;P2;SDS_P1;SDS_P2;PMS_P1;PMS_P2;Temp;Humidity;BMP_temperature;BMP_pressure;BME280_temperature;BME280_humidity;BME280_pressure;Samples;Min_cycle;Max_cycle;Signal;HPM_P1;HPM_P2
2023/07/10 00:00:24;;;;;;;22.30;12.95;;;20.20;99.90;;;;;;5074019;28;20479;-57
2023/07/10 00:02:51;;;;;;;22.95;13.43;;;20.00;99.90;;;;;;5073015;28;20036;-57
2023/07/10 00:05:19;;;;;;;23.27;15.73;;;20.10;99.90;;;;;;5073814;28;20171;-56
2023/07/10 00:07:45;;;;;;;18.75;13.80;;;20.00;99.90;;;;;;5074241;28;20044;-57
2023/07/10 00:10:13;;;;;;;26.90;17.13;;;20.00;99.90;;;;;;5073610;28;20117;-57
2023/07/10 00:12:40;;;;;;;22.63;15.50;;;20.00;99.90;;;;;;5073910;28;20036;-57
2023/07/10 00:15:13;;;;;;;25.73;14.57;;;20.00;99.90;;;;;;5073849;28;20498;-57
2023/07/10 00:17:39;;;;;;;27.75;14.77;;;19.90;99.90;;;;;;5073592;28;20076;-57
2023/07/10 00:20:33;;;;;;;27.70;18.65;;;20.00;99.90;;;;;;5073944;28;20076;-57
2023/07/10 00:22:59;;;;;;;22.42;15.45;;;19.90;99.90;;;;;;5011629;28;20046;-57
2023/07/10 00:25:25;;;;;;;18.80;14.52;;;20.00;99.90;;;;;;5011789;28;20494;-57
2023/07/10 00:27:50;;;;;;;24.98;14.55;;;19.90;99.90;;;;;;5011660;28;20049;-58
2023/07/10 00:30:17;;;;;;;25.48;17.60;;;20.10;99.90;;;;;;5011344;28;20045;-56
2023/07/10 00:32:45;;;;;;;28.90;17.85;;;20.00;99.90;;;;;;5011619;28;20133;-56
2023/07/10 00:35:16;;;;;;;23.70;14.60;;;20.00;99.90;;;;;;5011628;28;20045;-57
2023/07/10 00:37:45;;;;;;;22.52;12.70;;;20.00;99.90;;;;;;5011668;28;20057;-56
2023/07/10 00:40:18;;;;;;;;;;;20.00;99.90;;;;;;5011939;28;20130;-57
2023/07/10 00:42:46;;;;;;;19.42;11.98;;;20.00;99.90;;;;;;5011376;28;19917;-57
2023/07/10 00:45:14;;;;;;;25.90;13.50;;;20.00;99.90;;;;;;5011377;28;20134;-57
2023/07/10 00:47:46;;;;;;;33.20;14.50;;;19.80;99.90;;;;;;5011316;28;20042;-57
2023/07/10 00:50:30;;;;;;;23.25;15.13;;;20.00;99.90;;;;;;5011379;28;20405;-57
2023/07/10 00:52:59;;;;;;;27.00;16.02;;;20.00;99.90;;;;;;5011408;28;20495;-57
2023/07/10 00:55:37;;;;;;;28.10;18.58;;;19.90;99.90;;;;;;5011221;28;20096;-58
2023/07/10 00:58:11;;;;;;;31.00;18.38;;;19.80;99.90;;;;;;5011280;28;20046;-57
2023/07/10 01:00:36;;;;;;;31.75;19.33;;;19.90;99.90;;;;;;5066723;28;20055;-57
2023/07/10 01:03:02;;;;;;;31.67;20.02;;;19.80;99.90;;;;;;5072743;28;20029;-57
2023/07/10 01:05:31;;;;;;;28.77;17.60;;;19.80;99.90;;;;;;5073071;28;20118;-57
2023/07/10 01:07:58;;;;;;;41.10;24.08;;;19.70;99.90;;;;;;5072682;28;20040;-57
2023/07/10 01:10:25;;;;;;;45.22;25.95;;;19.70;99.90;;;;;;5072761;28;20044;-57
2023/07/10 01:12:51;;;;;;;37.58;24.60;;;19.70;99.90;;;;;;5072819;28;20036;-57
2023/07/10 01:15:17;;;;;;;33.00;22.60;;;19.60;99.90;;;;;;5072996;28;20398;-58
2023/07/10 01:17:43;;;;;;;31.63;18.83;;;19.60;99.90;;;;;;5072585;28;20044;-57
2023/07/10 01:20:30;;;;;;;34.60;22.35;;;19.60;99.90;;;;;;5071268;28;20040;-58
2023/07/10 01:22:56;;;;;;;29.58;20.48;;;19.80;99.90;;;;;;5072424;28;20039;-57
2023/07/10 01:25:22;;;;;;;30.73;20.77;;;19.80;99.90;;;;;;5072652;28;20036;-57
2023/07/10 01:27:47;;;;;;;35.85;21.48;;;19.70;99.90;;;;;;5072603;28;20043;-57
2023/07/10 01:30:30;;;;;;;34.67;19.90;;;19.80;99.90;;;;;;5072341;28;20072;-57
2023/07/10 01:32:56;;;;;;;33.10;19.42;;;19.70;99.90;;;;;;5072624;28;20103;-57
2023/07/10 01:35:25;;;;;;;24.50;18.42;;;19.60;99.90;;;;;;5072333;28;20040;-57
2023/07/10 01:37:51;;;;;;;28.17;18.83;;;19.50;99.90;;;;;;5063954;28;20433;-57
2023/07/10 01:40:24;;;;;;;25.25;17.60;;;19.50;99.90;;;;;;5066460;28;20040;-57
2023/07/10 01:42:50;;;;;;;23.33;17.33;;;19.50;99.90;;;;;;5072308;28;20037;-57
2023/07/10 01:45:15;;;;;;;30.25;19.08;;;19.40;99.90;;;;;;5072088;28;20553;-57
2023/07/10 01:47:41;;;;;;;21.25;16.20;;;19.30;99.90;;;;;;5071874;28;20032;-58
2023/07/10 01:50:08;;;;;;;27.85;16.75;;;19.30;99.90;;;;;;5071630;28;20039;-57
2023/07/10 01:52:33;;;;;;;26.20;18.67;;;19.30;99.90;;;;;;5070658;28;20033;-57
2023/07/10 01:54:59;;;;;;;30.50;16.52;;;19.40;99.90;;;;;;5072195;28;20066;-58
2023/07/10 01:57:25;;;;;;;26.52;16.85;;;19.30;99.90;;;;;;5071724;28;20044;-59
2023/07/10 01:59:52;;;;;;;22.00;15.20;;;19.50;99.90;;;;;;5072246;28;20040;-57
2023/07/10 02:02:18;;;;;;;27.58;16.83;;;19.50;99.90;;;;;;5072047;28;20037;-57
2023/07/10 02:04:44;;;;;;;30.65;20.35;;;19.40;99.90;;;;;;5053460;28;20051;-57
2023/07/10 02:07:09;;;;;;;27.30;19.60;;;19.40;99.90;;;;;;5072163;28;20043;-57
2023/07/10 02:09:35;;;;;;;31.77;20.60;;;19.40;99.90;;;;;;5070424;28;20036;-57
2023/07/10 02:12:02;;;;;;;25.77;18.45;;;19.40;99.90;;;;;;5071805;28;20032;-57
2023/07/10 02:14:28;;;;;;;31.33;21.50;;;19.40;99.90;;;;;;5071641;28;20036;-57
2023/07/10 02:16:54;;;;;;;26.75;20.77;;;19.40;99.90;;;;;;5071706;28;20467;-58
2023/07/10 02:19:19;;;;;;;29.20;21.08;;;19.50;99.90;;;;;;5071563;28;20047;-57
2023/07/10 02:21:46;;;;;;;25.63;20.40;;;19.30;99.90;;;;;;5071803;28;20060;-58
2023/07/10 02:24:11;;;;;;;36.72;21.88;;;19.40;99.90;;;;;;5071999;28;20029;-57
2023/07/10 02:26:37;;;;;;;33.03;20.83;;;19.40;99.90;;;;;;5078168;28;20798;-57
2023/07/10 02:29:03;;;;;;;31.95;21.58;;;19.20;99.90;;;;;;5069309;28;20090;-57
2023/07/10 02:31:29;;;;;;;29.60;20.50;;;19.30;99.90;;;;;;5078472;28;20033;-57
2023/07/10 02:33:55;;;;;;;28.40;19.15;;;19.30;99.90;;;;;;5074913;28;20040;-58
2023/07/10 02:36:22;;;;;;;28.83;18.38;;;19.30;99.90;;;;;;5067605;28;20036;-58
2023/07/10 02:38:48;;;;;;;38.58;21.23;;;19.20;99.90;;;;;;5078213;28;20032;-57
2023/07/10 02:41:14;;;;;;;24.15;17.15;;;19.20;99.90;;;;;;5078253;28;20390;-58
2023/07/10 02:43:39;;;;;;;25.15;19.23;;;19.10;99.90;;;;;;5078321;28;20028;-57
2023/07/10 02:46:05;;;;;;;21.92;17.95;;;19.30;99.90;;;;;;5065834;28;20041;-57
2023/07/10 02:48:31;;;;;;;22.50;15.90;;;19.20;99.90;;;;;;5075998;28;20040;-57
2023/07/10 02:50:56;;;;;;;22.48;16.17;;;19.20;99.90;;;;;;5078428;28;20089;-57
2023/07/10 02:53:22;;;;;;;23.30;16.00;;;19.10;99.90;;;;;;5078083;28;20399;-58
2023/07/10 02:55:48;;;;;;;20.33;14.73;;;19.10;99.90;;;;;;5078378;28;20389;-57
2023/07/10 02:58:16;;;;;;;17.33;13.70;;;19.10;99.90;;;;;;5078253;28;20032;-57
2023/07/10 03:00:41;;;;;;;19.25;12.77;;;19.10;99.90;;;;;;5076835;28;20132;-58
2023/07/10 03:03:07;;;;;;;20.77;12.90;;;19.20;99.90;;;;;;5066082;28;20115;-58
2023/07/10 03:05:33;;;;;;;19.35;12.95;;;19.20;99.90;;;;;;5075798;28;20033;-57
2023/07/10 03:07:59;;;;;;;19.90;14.80;;;19.10;99.90;;;;;;5078206;28;20041;-58
2023/07/10 03:10:24;;;;;;;18.90;13.20;;;19.20;99.90;;;;;;5078001;28;20044;-57
2023/07/10 03:12:50;;;;;;;20.73;14.20;;;19.10;99.90;;;;;;5078077;28;20115;-57
2023/07/10 03:15:16;;;;;;;21.50;15.23;;;19.10;99.90;;;;;;5078454;28;20734;-57
2023/07/10 03:17:42;;;;;;;16.17;12.93;;;19.00;99.90;;;;;;5077864;28;20047;-56
2023/07/10 03:20:10;;;;;;;32.75;15.25;;;18.90;99.90;;;;;;5077987;28;20052;-58
2023/07/10 03:22:35;;;;;;;19.17;14.10;;;18.90;99.90;;;;;;5077906;28;20150;-57
2023/07/10 03:25:01;;;;;;;23.23;14.93;;;18.90;99.90;;;;;;5077883;28;20484;-57
2023/07/10 03:27:27;;;;;;;24.50;16.25;;;18.90;99.90;;;;;;5077723;28;20032;-57
2023/07/10 03:29:53;;;;;;;20.23;15.85;;;18.90;99.90;;;;;;5073345;28;20487;-57
2023/07/10 03:32:19;;;;;;;27.08;15.95;;;18.90;99.90;;;;;;5068038;28;20040;-57
2023/07/10 03:34:45;;;;;;;22.67;14.85;;;19.00;99.90;;;;;;5077812;28;20040;-57
2023/07/10 03:37:11;;;;;;;20.33;15.27;;;18.90;99.90;;;;;;5063369;28;20044;-57
2023/07/10 03:39:37;;;;;;;28.92;16.35;;;19.00;99.90;;;;;;5071961;28;20065;-58
2023/07/10 03:42:03;;;;;;;21.02;16.27;;;19.00;99.90;;;;;;5074680;28;20033;-58
2023/07/10 03:44:29;;;;;;;21.38;14.85;;;19.00;99.90;;;;;;5074153;28;20036;-58
2023/07/10 03:46:56;;;;;;;19.83;13.55;;;18.90;99.90;;;;;;5074629;28;20054;-59
2023/07/10 03:49:24;;;;;;;19.05;12.95;;;18.90;99.90;;;;;;5074705;28;20040;-58
2023/07/10 03:51:50;;;;;;;13.90;11.40;;;19.10;99.90;;;;;;5074638;28;20075;-57
2023/07/10 03:54:16;;;;;;;15.10;10.77;;;19.00;99.90;;;;;;5069754;28;20471;-57
2023/07/10 03:56:42;;;;;;;15.10;10.82;;;19.10;99.90;;;;;;5071064;28;20040;-58
2023/07/10 03:59:09;;;;;;;16.60;11.43;;;19.10;99.90;;;;;;5074084;28;20036;-57
2023/07/10 04:01:35;;;;;;;14.35;10.00;;;19.10;99.90;;;;;;5074259;28;20040;-57
2023/07/10 04:04:00;;;;;;;19.60;11.45;;;19.10;99.90;;;;;;5074195;28;20360;-58
2023/07/10 04:06:26;;;;;;;12.50;10.00;;;19.00;99.90;;;;;;5074172;28;20168;-58
2023/07/10 04:08:52;;;;;;;11.57;9.00;;;19.00;99.90;;;;;;5074033;28;20107;-57
2023/07/10 04:11:19;;;;;;;14.90;10.13;;;18.90;99.90;;;;;;5074269;28;20093;-58
2023/07/10 04:13:46;;;;;;;12.23;9.00;;;19.00;99.90;;;;;;5073783;28;20475;-57
2023/07/10 04:16:19;;;;;;;11.45;9.13;;;19.00;99.90;;;;;;5074035;28;20060;-57
2023/07/10 04:18:48;;;;;;;15.05;9.40;;;18.90;99.90;;;;;;5073870;28;20111;-57
2023/07/10 04:21:34;;;;;;;13.68;9.65;;;18.90;99.90;;;;;;5074102;28;20044;-57
2023/07/10 04:24:00;;;;;;;11.73;8.65;;;18.90;99.90;;;;;;5073718;28;20035;-57
2023/07/10 04:26:31;;;;;;;10.65;7.68;;;18.80;99.90;;;;;;5073617;28;20128;-57
2023/07/10 04:28:59;;;;;;;11.20;7.60;;;18.90;99.90;;;;;;5073661;28;20387;-58
2023/07/10 04:31:25;;;;;;;12.82;8.13;;;18.80;99.90;;;;;;5073809;28;20128;-57
2023/07/10 04:33:52;;;;;;;9.05;7.50;;;18.90;99.90;;;;;;5073779;28;20082;-57
2023/07/10 04:36:19;;;;;;;13.27;9.55;;;18.90;99.90;;;;;;5069832;28;20025;-57
2023/07/10 04:38:45;;;;;;;14.85;10.35;;;19.00;99.90;;;;;;5063626;28;20044;-57
2023/07/10 04:41:12;;;;;;;14.88;10.23;;;18.90;99.90;;;;;;5073260;28;20039;-57
2023/07/10 04:43:38;;;;;;;12.50;10.07;;;19.00;99.90;;;;;;5073354;28;20135;-57
2023/07/10 04:46:08;;;;;;;18.42;10.45;;;19.10;99.90;;;;;;5073052;28;20128;-57
2023/07/10 04:48:34;;;;;;;10.68;9.05;;;19.00;99.90;;;;;;5072923;28;20495;-57
2023/07/10 04:51:03;;;;;;;14.38;10.65;;;19.00;99.90;;;;;;5073374;28;20044;-57
2023/07/10 04:53:32;;;;;;;13.63;9.85;;;19.10;99.90;;;;;;5072989;28;20108;-57
2023/07/10 04:56:04;;;;;;;11.48;10.02;;;19.10;99.90;;;;;;5073069;28;20052;-57
2023/07/10 04:59:04;;;;;;;12.77;9.40;;;19.00;99.90;;;;;;5073230;28;20044;-56
2023/07/10 05:01:34;;;;;;;12.73;8.80;;;19.00;99.90;;;;;;5072704;28;20083;-57
2023/07/10 05:04:01;;;;;;;10.45;6.97;;;18.90;99.90;;;;;;5072872;28;20040;-57
2023/07/10 05:06:27;;;;;;;11.45;7.80;;;18.90;99.90;;;;;;5073186;28;20040;-57
2023/07/10 05:08:54;;;;;;;9.88;6.95;;;19.00;99.90;;;;;;5072946;28;20088;-57
2023/07/10 05:11:22;;;;;;;11.40;6.57;;;19.00;99.90;;;;;;5066046;28;20040;-57
2023/07/10 05:13:48;;;;;;;9.32;6.22;;;18.90;99.90;;;;;;5072700;28;20043;-57
2023/07/10 05:16:14;;;;;;;6.70;5.05;;;19.00;99.90;;;;;;5071724;28;20372;-57
2023/07/10 05:18:40;;;;;;;9.52;5.78;;;19.00;99.90;;;;;;5072726;28;20035;-57
2023/07/10 05:21:06;;;;;;;11.27;5.57;;;18.90;99.90;;;;;;5072501;28;20419;-57
2023/07/10 05:23:32;;;;;;;9.65;6.78;;;19.00;99.90;;;;;;5072697;28;20086;-57
2023/07/10 05:25:59;;;;;;;9.25;5.15;;;18.90;99.90;;;;;;5072792;28;20041;-57
2023/07/10 05:28:25;;;;;;;10.27;5.65;;;18.90;99.90;;;;;;5072604;28;20402;-55
2023/07/10 05:30:51;;;;;;;12.48;5.22;;;19.00;99.90;;;;;;5065475;28;20033;-55
2023/07/10 05:33:18;;;;;;;10.52;5.60;;;19.00;99.90;;;;;;5056506;28;20036;-58
2023/07/10 05:35:51;;;;;;;8.18;4.97;;;19.00;99.90;;;;;;5072209;28;20471;-57
2023/07/10 05:38:17;;;;;;;7.93;4.15;;;19.00;99.90;;;;;;5058879;28;20041;-56
2023/07/10 05:40:43;;;;;;;8.90;4.20;;;19.10;99.90;;;;;;5072509;28;20091;-57
2023/07/10 05:43:09;;;;;;;6.28;3.83;;;19.20;99.90;;;;;;5072171;28;20040;-57
2023/07/10 05:45:34;;;;;;;9.35;3.72;;;19.20;99.90;;;;;;5071815;28;20060;-57
2023/07/10 05:48:00;;;;;;;8.00;4.10;;;19.30;99.90;;;;;;5072320;28;20178;-57
2023/07/10 05:50:26;;;;;;;6.57;3.63;;;19.30;99.90;;;;;;5072310;28;20040;-57
2023/07/10 05:52:51;;;;;;;13.55;4.05;;;19.40;99.90;;;;;;5072232;28;20387;-57
2023/07/10 05:55:17;;;;;;;8.43;3.58;;;19.40;99.90;;;;;;5072096;28;20040;-57
2023/07/10 05:57:42;;;;;;;6.82;3.47;;;19.40;99.90;;;;;;5072033;28;20036;-56
2023/07/10 06:00:08;;;;;;;12.52;3.38;;;19.40;99.90;;;;;;5071545;28;20086;-56
2023/07/10 06:02:34;;;;;;;9.82;3.17;;;19.40;99.90;;;;;;5072162;28;20141;-57
2023/07/10 06:04:59;;;;;;;5.50;3.25;;;19.40;99.90;;;;;;5072220;28;20032;-56
2023/07/10 06:07:25;;;;;;;8.35;4.07;;;19.40;99.90;;;;;;5072060;28;20075;-56
2023/07/10 06:09:51;;;;;;;9.68;3.35;;;19.40;99.90;;;;;;5071736;28;20055;-55
2023/07/10 06:12:16;;;;;;;7.97;3.40;;;19.40;99.90;;;;;;5072080;28;20044;-56
2023/07/10 06:14:42;;;;;;;9.13;5.15;;;19.50;99.90;;;;;;5072114;28;20090;-55
2023/07/10 06:17:08;;;;;;;10.07;3.15;;;19.60;99.90;;;;;;5071657;28;20383;-56
2023/07/10 06:19:33;;;;;;;9.45;3.08;;;19.50;99.90;;;;;;5071967;28;20501;-56
2023/07/10 06:22:10;;;;;;;6.97;2.83;;;19.60;99.90;;;;;;5071660;28;20064;-56
2023/07/10 06:24:36;;;;;;;9.48;3.75;;;19.60;99.90;;;;;;5071851;28;20487;-56
2023/07/10 06:27:02;;;;;;;11.00;3.30;;;19.60;99.90;;;;;;5071485;28;20068;-56
2023/07/10 06:29:29;;;;;;;8.55;3.20;;;19.60;99.90;;;;;;5070828;28;20044;-56
2023/07/10 06:31:54;;;;;;;8.32;3.67;;;19.60;99.90;;;;;;5071819;28;20040;-56
2023/07/10 06:34:20;;;;;;;9.35;3.30;;;19.60;99.90;;;;;;5072255;28;20136;-56
2023/07/10 06:36:46;;;;;;;12.95;3.60;;;19.70;99.90;;;;;;5063192;28;20048;-56
2023/07/10 06:39:11;;;;;;;13.27;3.17;;;19.90;99.90;;;;;;5068734;28;20044;-56
2023/07/10 06:41:37;;;;;;;10.45;3.00;;;20.00;99.90;;;;;;5068401;28;20474;-56
2023/07/10 06:44:03;;;;;;;7.72;3.28;;;20.20;99.90;;;;;;5071169;28;20096;-56
2023/07/10 06:46:28;;;;;;;9.45;3.15;;;20.40;99.90;;;;;;5054816;28;20124;-55
2023/07/10 06:48:54;;;;;;;10.50;3.53;;;20.60;99.90;;;;;;5053577;28;20173;-55
2023/07/10 06:51:20;;;;;;;10.43;3.15;;;20.80;99.90;;;;;;5058154;28;20037;-55
2023/07/10 06:53:45;;;;;;;13.85;3.75;;;20.90;99.90;;;;;;5055887;28;20456;-55
2023/07/10 06:56:11;;;;;;;10.27;3.53;;;20.90;99.90;;;;;;5062768;28;20044;-55
2023/07/10 06:58:36;;;;;;;6.93;3.15;;;21.10;99.90;;;;;;5058859;28;20037;-56
2023/07/10 07:01:03;;;;;;;8.30;2.85;;;21.30;99.90;;;;;;5065629;28;20044;-56
2023/07/10 07:03:29;;;;;;;6.60;2.22;;;21.40;99.90;;;;;;5063574;28;20036;-55
2023/07/10 07:05:55;;;;;;;7.55;2.35;;;21.50;99.90;;;;;;5058495;28;20032;-56
2023/07/10 07:08:21;;;;;;;6.53;2.35;;;21.60;99.90;;;;;;5068131;28;20169;-56
2023/07/10 07:10:49;;;;;;;7.30;3.10;;;21.70;99.90;;;;;;5071287;28;20036;-56
2023/07/10 07:13:16;;;;;;;6.33;2.83;;;21.80;99.90;;;;;;5062067;28;20037;-56
2023/07/10 07:15:41;;;;;;;10.77;3.13;;;22.00;99.90;;;;;;5055313;28;20355;-55
2023/07/10 07:18:07;;;;;;;10.50;3.17;;;22.10;99.90;;;;;;5055162;28;20535;-56
2023/07/10 07:20:33;;;;;;;6.75;3.10;;;22.20;99.90;;;;;;5054645;28;20091;-56
2023/07/10 07:22:59;;;;;;;7.35;2.30;;;22.30;99.90;;;;;;5054904;28;20072;-55
2023/07/10 07:25:27;;;;;;;7.15;2.58;;;22.10;99.90;;;;;;5054763;28;20391;-56
2023/07/10 07:27:53;;;;;;;10.25;2.55;;;22.40;99.90;;;;;;5064173;28;20033;-56
2023/07/10 07:30:20;;;;;;;8.40;2.70;;;22.60;99.90;;;;;;5054649;28;20418;-56
2023/07/10 07:32:47;;;;;;;6.90;2.40;;;22.70;99.90;;;;;;5063379;28;20460;-55
2023/07/10 07:35:13;;;;;;;5.50;2.33;;;23.00;99.90;;;;;;5066574;28;20045;-55
2023/07/10 07:37:38;;;;;;;7.47;2.25;;;23.10;99.90;;;;;;5073629;28;20043;-56
2023/07/10 07:40:06;;;;;;;7.05;2.47;;;23.30;99.90;;;;;;5074140;28;20044;-56
2023/07/10 07:42:32;;;;;;;4.90;1.92;;;23.20;99.90;;;;;;5074720;28;20112;-56
2023/07/10 07:44:58;;;;;;;6.95;2.20;;;23.30;99.90;;;;;;5073440;28;20549;-56
2023/07/10 07:47:26;;;;;;;10.10;2.50;;;23.50;99.90;;;;;;5066178;28;20129;-55
2023/07/10 07:49:52;;;;;;;10.70;2.35;;;23.50;99.90;;;;;;5056712;28;20037;-60
2023/07/10 07:52:17;;;;;;;8.48;2.30;;;23.70;99.90;;;;;;5065983;28;20045;-64
2023/07/10 07:54:43;;;;;;;8.73;2.30;;;24.00;99.90;;;;;;5066692;28;20040;-64
2023/07/10 07:57:09;;;;;;;8.40;2.67;;;24.60;99.90;;;;;;5064323;28;20383;-65
2023/07/10 07:59:35;;;;;;;9.68;2.05;;;25.50;99.90;;;;;;5059224;28;20041;-64
2023/07/10 08:02:00;;;;;;;6.95;2.40;;;26.10;99.90;;;;;;5058479;28;20037;-64
2023/07/10 08:04:26;;;;;;;8.07;2.53;;;26.00;99.90;;;;;;5054345;28;20064;-64
2023/07/10 08:06:52;;;;;;;7.32;2.10;;;26.20;99.90;;;;;;5054466;28;20029;-65
2023/07/10 08:09:17;;;;;;;5.97;2.20;;;26.00;99.90;;;;;;5054440;28;20037;-64
2023/07/10 08:11:43;;;;;;;5.10;2.00;;;25.90;99.90;;;;;;5054661;28;20045;-65
2023/07/10 08:14:09;;;;;;;7.13;2.50;;;25.30;99.90;;;;;;5054322;28;20194;-64
2023/07/10 08:16:35;;;;;;;10.32;2.25;;;26.50;99.90;;;;;;5054210;28;20395;-64
2023/07/10 08:19:01;;;;;;;4.57;1.92;;;26.50;99.90;;;;;;5061491;28;20059;-65
2023/07/10 08:21:27;;;;;;;7.82;2.42;;;27.00;99.90;;;;;;5055660;28;20056;-64
2023/07/10 08:23:52;;;;;;;9.82;2.28;;;26.30;99.90;;;;;;5073213;28;20421;-64
2023/07/10 08:26:18;;;;;;;6.03;1.70;;;27.00;99.90;;;;;;5074430;28;20166;-65
2023/07/10 08:28:44;;;;;;;9.77;2.33;;;27.00;99.90;;;;;;5073794;28;20039;-65
2023/07/10 08:31:09;;;;;;;6.63;1.80;;;26.90;99.90;;;;;;5073397;28;20037;-64
2023/07/10 08:33:36;;;;;;;8.23;2.38;;;27.40;99.90;;;;;;5073655;28;20032;-65
2023/07/10 08:36:04;;;;;;;10.00;2.42;;;27.60;99.90;;;;;;5072270;28;20456;-64
2023/07/10 08:38:31;;;;;;;11.90;2.60;;;27.70;99.90;;;;;;5061856;28;20044;-66
2023/07/10 08:41:01;;;;;;;9.50;2.28;;;27.70;99.90;;;;;;5073411;28;20040;-65
2023/07/10 08:43:34;;;;;;;7.00;2.03;;;28.10;99.90;;;;;;5073536;28;20035;-64
2023/07/10 08:46:05;;;;;;;11.63;2.80;;;27.90;99.90;;;;;;5073532;28;20056;-65
2023/07/10 08:48:44;;;;;;;5.38;2.15;;;27.90;99.90;;;;;;5073322;28;20527;-65
2023/07/10 08:51:14;;;;;;;6.88;2.20;;;28.20;99.90;;;;;;5073511;28;20135;-65
2023/07/10 08:53:45;;;;;;;4.72;2.05;;;28.30;99.90;;;;;;5073816;28;20082;-65
2023/07/10 08:56:42;;;;;;;6.22;1.70;;;28.10;99.90;;;;;;5073373;28;20040;-64
2023/07/10 08:59:34;;;;;;;5.55;1.70;;;27.50;99.90;;;;;;5061347;28;20045;-65
2023/07/10 09:02:00;;;;;;;7.35;2.08;;;27.60;99.90;;;;;;5030790;28;20424;-65
2023/07/10 09:04:26;;;;;;;7.78;2.20;;;28.20;99.90;;;;;;5031101;28;20053;-64
2023/07/10 09:06:56;;;;;;;6.53;2.13;;;28.80;99.90;;;;;;5031185;28;20044;-65
2023/07/10 09:09:54;;;;;;;8.27;1.80;;;28.30;99.90;;;;;;5031483;28;20046;-65
2023/07/10 09:12:29;;;;;;;7.95;2.08;;;28.40;99.90;;;;;;4952542;29;20057;-64
2023/07/10 09:15:00;;;;;;;4.82;2.15;;;28.50;99.90;;;;;;4952659;29;20043;-65
2023/07/10 09:17:41;;;;;;;7.68;2.20;;;28.60;99.90;;;;;;4952721;29;20054;-64
2023/07/10 09:20:10;;;;;;;6.82;1.92;;;28.40;99.90;;;;;;4952723;29;20538;-64
2023/07/10 09:22:38;;;;;;;8.15;2.25;;;28.90;99.90;;;;;;4926501;29;20078;-65
2023/07/10 09:25:11;;;;;;;6.15;2.33;;;28.80;99.90;;;;;;4952743;29;20043;-65
2023/07/10 09:27:37;;;;;;;4.90;1.90;;;28.80;99.90;;;;;;4942892;29;20465;-65
2023/07/10 09:30:03;;;;;;;6.45;2.10;;;29.40;99.90;;;;;;4952621;29;20179;-64
2023/07/10 09:32:36;;;;;;;7.50;2.03;;;29.30;99.90;;;;;;4942320;29;20537;-64
2023/07/10 09:35:03;;;;;;;5.35;1.88;;;29.20;99.90;;;;;;4952382;28;20058;-65
2023/07/10 09:37:35;;;;;;;6.40;2.28;;;29.60;99.90;;;;;;4953406;29;20047;-65
2023/07/10 09:40:25;;;;;;;8.55;2.38;;;29.20;99.90;;;;;;4989172;28;20528;-65
2023/07/10 09:42:51;;;;;;;9.10;2.78;;;29.60;99.90;;;;;;4991852;28;20053;-65
2023/07/10 09:45:17;;;;;;;9.80;2.40;;;29.40;99.90;;;;;;4975339;28;20433;-63
2023/07/10 09:47:50;;;;;;;8.35;2.25;;;29.20;99.90;;;;;;4996572;28;20049;-64
2023/07/10 09:50:18;;;;;;;6.40;2.10;;;29.00;99.90;;;;;;5059395;28;20501;-64
2023/07/10 09:52:54;;;;;;;9.27;2.35;;;29.20;99.90;;;;;;5072948;28;20048;-65
2023/07/10 09:55:20;;;;;;;7.72;2.28;;;29.50;99.90;;;;;;5072777;28;20032;-65
2023/07/10 09:57:56;;;;;;;9.35;2.50;;;29.50;99.90;;;;;;5072997;28;20059;-65
2023/07/10 10:00:22;;;;;;;8.57;2.53;;;29.70;99.90;;;;;;5072977;28;20036;-64
2023/07/10 10:03:00;;;;;;;13.95;3.20;;;29.70;99.90;;;;;;5072782;28;20090;-64
2023/07/10 10:05:27;;;;;;;8.38;2.58;;;30.00;99.90;;;;;;5072835;28;20520;-64
2023/07/10 10:08:01;;;;;;;9.60;2.83;;;30.10;99.90;;;;;;5072806;28;20398;-65
2023/07/10 10:10:32;;;;;;;7.57;2.33;;;30.10;99.90;;;;;;5072622;28;20129;-63
2023/07/10 10:13:20;;;;;;;12.32;2.95;;;30.20;99.90;;;;;;5072863;28;20440;-64
2023/07/10 10:15:53;;;;;;;7.85;2.55;;;30.40;99.90;;;;;;5059291;28;20044;-65
2023/07/10 10:18:40;;;;;;;9.90;2.53;;;30.40;99.90;;;;;;5071780;28;20036;-65
2023/07/10 10:21:09;;;;;;;7.78;2.58;;;30.00;99.90;;;;;;5071117;28;20043;-65
2023/07/10 10:23:38;;;;;;;7.13;2.40;;;30.10;99.90;;;;;;5063991;28;20415;-63
2023/07/10 10:26:27;;;;;;;7.47;2.38;;;30.20;99.90;;;;;;5060434;28;20038;-64
2023/07/10 10:29:11;;;;;;;10.05;2.88;;;30.00;99.90;;;;;;5072044;28;20432;-64
2023/07/10 10:31:47;;;;;;;13.43;2.55;;;29.70;99.90;;;;;;5072157;28;20181;-64
2023/07/10 10:34:37;;;;;;;10.85;2.72;;;29.90;99.90;;;;;;5072052;28;20047;-64
2023/07/10 10:37:17;;;;;;;9.55;2.85;;;29.60;99.90;;;;;;5062020;28;20033;-63
2023/07/10 10:39:51;;;;;;;13.55;3.53;;;29.90;99.90;;;;;;5058499;28;20094;-64
2023/07/10 10:42:28;;;;;;;28.30;9.93;;;30.00;99.90;;;;;;5071240;28;20101;-62
2023/07/10 10:45:16;;;;;;;11.63;4.68;;;30.60;99.90;;;;;;5051924;28;20448;-63
2023/07/10 10:48:04;;;;;;;20.30;8.55;;;30.70;99.80;;;;;;5055549;28;20391;-63
2023/07/10 10:50:57;;;;;;;8.95;2.00;;;30.20;99.90;;;;;;5056006;28;20037;-63
2023/07/10 10:53:23;;;;;;;11.85;5.10;;;30.50;99.90;;;;;;5055860;28;20040;-64
2023/07/10 10:55:57;;;;;;;16.75;5.78;;;30.20;99.90;;;;;;5055932;28;20102;-64
2023/07/10 10:58:36;;;;;;;9.05;3.47;;;30.20;99.90;;;;;;5055646;28;20432;-64
2023/07/10 11:01:19;;;;;;;;;;;30.40;99.90;;;;;;5062507;28;20147;-65
2023/07/10 11:03:49;;;;;;;11.13;3.60;;;30.30;98.70;;;;;;5075634;28;19951;-65
2023/07/10 11:06:44;;;;;;;9.73;2.67;;;30.20;99.90;;;;;;5076195;28;20040;-65
2023/07/10 11:09:32;;;;;;;10.45;2.28;;;30.40;99.40;;;;;;5069007;28;20226;-64
2023/07/10 11:11:59;;;;;;;9.93;2.78;;;30.40;99.40;;;;;;5020587;28;20057;-63
2023/07/10 11:14:25;;;;;;;7.90;1.92;;;30.70;99.60;;;;;;5028440;28;20052;-63
2023/07/10 11:16:52;;;;;;;8.02;2.45;;;30.40;99.70;;;;;;5013452;28;20053;-62
2023/07/10 11:19:23;;;;;;;10.30;2.28;;;30.00;99.60;;;;;;5026326;28;20041;-63
2023/07/10 11:21:52;;;;;;;12.52;3.00;;;30.10;99.90;;;;;;5029686;28;20123;-63
2023/07/10 11:24:23;;;;;;;10.73;2.63;;;29.60;99.90;;;;;;5025553;28;20112;-64
2023/07/10 11:26:54;;;;;;;7.68;2.10;;;29.70;99.90;;;;;;5013504;28;20029;-63
2023/07/10 11:29:45;;;;;;;6.00;2.17;;;28.70;99.90;;;;;;5025646;28;20045;-63
2023/07/10 11:32:16;;;;;;;6.63;2.20;;;28.30;99.90;;;;;;5022759;28;20404;-63
2023/07/10 11:35:13;;;;;;;8.93;2.38;;;28.70;99.70;;;;;;5017796;28;20169;-62
2023/07/10 11:37:41;;;;;;;6.85;1.58;;;29.30;99.90;;;;;;5027954;28;20376;-64
2023/07/10 11:40:27;;;;;;;6.78;1.90;;;29.30;98.70;;;;;;5016037;28;20443;-63
2023/07/10 11:42:54;;;;;;;7.60;2.33;;;29.60;99.20;;;;;;5032405;28;20484;-63
2023/07/10 11:45:28;;;;;;;11.20;1.90;;;29.80;99.10;;;;;;5030346;28;20058;-64
2023/07/10 11:47:55;;;;;;;5.65;2.10;;;30.10;98.80;;;;;;5031062;28;20045;-64
2023/07/10 11:50:27;;;;;;;8.18;1.95;;;29.50;99.40;;;;;;5053598;28;20092;-65
2023/07/10 11:53:15;;;;;;;8.75;1.65;;;28.90;99.70;;;;;;5055353;28;20041;-65
2023/07/10 11:55:53;;;;;;;6.65;1.60;;;29.00;99.90;;;;;;5058312;28;20090;-64
2023/07/10 11:58:28;;;;;;;4.80;1.52;;;29.30;99.90;;;;;;5073599;28;20080;-64
2023/07/10 12:01:03;;;;;;;3.97;1.58;;;28.70;99.70;;;;;;5074746;28;20082;-64
2023/07/10 12:03:33;;;;;;;6.90;2.13;;;28.70;99.30;;;;;;5074801;28;20029;-63
2023/07/10 12:05:59;;;;;;;8.18;2.70;;;28.60;97.90;;;;;;5074606;28;20116;-62
2023/07/10 12:08:29;;;;;;;4.85;1.50;;;28.40;98.90;;;;;;5074886;28;20446;-64
2023/07/10 12:10:55;;;;;;;5.40;1.83;;;28.50;99.90;;;;;;5074524;28;20036;-63
2023/07/10 12:13:27;;;;;;;5.57;1.88;;;28.60;99.30;;;;;;5074296;28;20101;-63
2023/07/10 12:15:54;;;;;;;6.45;1.85;;;28.80;99.10;;;;;;5067226;28;20047;-64
2023/07/10 12:18:32;;;;;;;6.47;1.73;;;28.70;99.30;;;;;;5066176;28;20047;-62
2023/07/10 12:21:01;;;;;;;6.47;1.70;;;28.80;99.50;;;;;;5074467;28;20049;-64
2023/07/10 12:23:27;;;;;;;5.25;1.55;;;28.40;99.20;;;;;;5074461;28;20041;-63
2023/07/10 12:25:55;;;;;;;3.42;1.40;;;28.70;99.00;;;;;;5074040;28;20433;-64
2023/07/10 12:28:23;;;;;;;5.07;0.98;;;28.60;98.10;;;;;;5074493;28;20079;-62
2023/07/10 12:30:51;;;;;;;4.32;1.17;;;28.40;96.80;;;;;;5073956;28;20040;-62
2023/07/10 12:33:38;;;;;;;9.00;1.92;;;28.50;97.50;;;;;;5074169;28;20143;-64
2023/07/10 12:36:16;;;;;;;7.82;1.83;;;28.40;98.30;;;;;;5061033;28;20056;-63
2023/07/10 12:38:42;;;;;;;7.43;1.80;;;28.50;98.40;;;;;;5064132;28;20386;-63
2023/07/10 12:41:08;;;;;;;6.10;1.67;;;28.40;98.00;;;;;;5073770;28;20048;-62
2023/07/10 12:43:34;;;;;;;3.53;1.10;;;28.00;98.10;;;;;;5073804;28;20037;-63
2023/07/10 12:46:04;;;;;;;9.80;1.65;;;28.10;99.40;;;;;;5073868;28;20060;-62
2023/07/10 12:48:32;;;;;;;6.93;1.50;;;27.80;99.50;;;;;;5073723;28;20033;-63